sensor_id;sensor_type;location;lat;lon;timestamp;pressure;altitude;pressure_sealevel;temperature;humidity
35443;BME280;21561;55.654;37.592;2023-06-19T00:01:09;100020.63;;;15.59;46.66
35443;BME280;21561;55.654;37.592;2023-06-19T00:03:36;100014.66;;;15.54;46.30
35443;BME280;21561;55.654;37.592;2023-06-19T00:06:03;100019.00;;;15.54;46.85
35443;BME280;21561;55.654;37.592;2023-06-19T00:08:30;100024.31;;;15.51;46.54
35443;BME280;21561;55.654;37.592;2023-06-19T00:10:57;100025.28;;;15.45;46.50
35443;BME280;21561;55.654;37.592;2023-06-19T00:13:24;100026.16;;;15.45;46.72
35443;BME280;21561;55.654;37.592;2023-06-19T00:15:51;100019.25;;;15.41;46.46
35443;BME280;21561;55.654;37.592;2023-06-19T00:18:18;100024.63;;;15.35;47.01
35443;BME280;21561;55.654;37.592;2023-06-19T00:20:46;100022.16;;;15.29;46.71
35443;BME280;21561;55.654;37.592;2023-06-19T00:23:14;100030.91;;;15.26;46.73
35443;BME280;21561;55.654;37.592;2023-06-19T00:25:44;100025.78;;;15.22;47.18
35443;BME280;21561;55.654;37.592;2023-06-19T00:28:11;100033.72;;;15.17;47.01
35443;BME280;21561;55.654;37.592;2023-06-19T00:30:41;100032.06;;;15.12;47.09
35443;BME280;21561;55.654;37.592;2023-06-19T00:33:08;100044.41;;;15.03;47.31
35443;BME280;21561;55.654;37.592;2023-06-19T00:35:35;100048.94;;;14.95;47.84
35443;BME280;21561;55.654;37.592;2023-06-19T00:38:05;100055.91;;;14.95;48.27
35443;BME280;21561;55.654;37.592;2023-06-19T00:40:33;100056.88;;;14.89;48.38
35443;BME280;21561;55.654;37.592;2023-06-19T00:43:01;100071.75;;;14.85;48.45
35443;BME280;21561;55.654;37.592;2023-06-19T00:45:29;100077.91;;;14.83;48.72
35443;BME280;21561;55.654;37.592;2023-06-19T00:47:58;100084.88;;;14.82;48.79
35443;BME280;21561;55.654;37.592;2023-06-19T00:50:25;100088.41;;;14.80;48.78
35443;BME280;21561;55.654;37.592;2023-06-19T00:52:54;100083.22;;;14.77;49.28
35443;BME280;21561;55.654;37.592;2023-06-19T00:55:21;100086.81;;;14.69;49.20
35443;BME280;21561;55.654;37.592;2023-06-19T00:57:49;100095.66;;;14.62;49.45
35443;BME280;21561;55.654;37.592;2023-06-19T01:00:19;100092.22;;;14.60;49.74
35443;BME280;21561;55.654;37.592;2023-06-19T01:02:47;100097.44;;;14.60;49.64
35443;BME280;21561;55.654;37.592;2023-06-19T01:05:15;100113.13;;;14.57;49.86
35443;BME280;21561;55.654;37.592;2023-06-19T01:10:52;100104.41;;;14.61;49.62
35443;BME280;21561;55.654;37.592;2023-06-19T01:13:28;100112.25;;;14.57;49.80
35443;BME280;21561;55.654;37.592;2023-06-19T01:15:57;100104.50;;;14.52;49.45
35443;BME280;21561;55.654;37.592;2023-06-19T01:18:25;100107.13;;;14.52;49.42
35443;BME280;21561;55.654;37.592;2023-06-19T01:20:53;100101.06;;;14.50;49.29
35443;BME280;21561;55.654;37.592;2023-06-19T01:23:20;100088.88;;;14.49;49.23
35443;BME280;21561;55.654;37.592;2023-06-19T01:25:47;100083.66;;;14.49;49.37
35443;BME280;21561;55.654;37.592;2023-06-19T01:28:14;100088.94;;;14.46;49.35
35443;BME280;21561;55.654;37.592;2023-06-19T01:30:42;100090.72;;;14.44;49.14
35443;BME280;21561;55.654;37.592;2023-06-19T01:33:15;100092.44;;;14.45;49.75
35443;BME280;21561;55.654;37.592;2023-06-19T01:35:45;100095.09;;;14.42;49.57
35443;BME280;21561;55.654;37.592;2023-06-19T01:38:14;100092.47;;;14.42;49.45
35443;BME280;21561;55.654;37.592;2023-06-19T01:40:41;100100.34;;;14.39;50.12
35443;BME280;21561;55.654;37.592;2023-06-19T01:43:09;100105.56;;;14.39;49.88
35443;BME280;21561;55.654;37.592;2023-06-19T01:45:37;100098.69;;;14.35;50.07
35443;BME280;21561;55.654;37.592;2023-06-19T01:48:04;100103.06;;;14.32;50.36
35443;BME280;21561;55.654;37.592;2023-06-19T01:50:31;100104.78;;;14.33;50.01
35443;BME280;21561;55.654;37.592;2023-06-19T01:52:58;100110.88;;;14.34;49.99
35443;BME280;21561;55.654;37.592;2023-06-19T01:55:25;100104.78;;;14.33;50.20
35443;BME280;21561;55.654;37.592;2023-06-19T01:57:52;100103.09;;;14.29;50.34
35443;BME280;21561;55.654;37.592;2023-06-19T02:00:19;100090.97;;;14.28;50.24
35443;BME280;21561;55.654;37.592;2023-06-19T02:02:46;100096.19;;;14.28;50.23
35443;BME280;21561;55.654;37.592;2023-06-19T02:05:14;100100.53;;;14.28;50.48
35443;BME280;21561;55.654;37.592;2023-06-19T02:07:41;100097.94;;;14.26;50.62
35443;BME280;21561;55.654;37.592;2023-06-19T02:10:09;100106.66;;;14.25;50.63
35443;BME280;21561;55.654;37.592;2023-06-19T02:12:37;100104.88;;;14.27;50.41
35443;BME280;21561;55.654;37.592;2023-06-19T02:15:04;100099.66;;;14.27;50.45
35443;BME280;21561;55.654;37.592;2023-06-19T02:17:35;100093.63;;;14.25;50.71
35443;BME280;21561;55.654;37.592;2023-06-19T02:20:02;100103.09;;;14.29;51.17
35443;BME280;21561;55.654;37.592;2023-06-19T02:22:52;100089.97;;;14.36;50.56
35443;BME280;21561;55.654;37.592;2023-06-19T02:25:19;100076.06;;;14.33;49.85
35443;BME280;21561;55.654;37.592;2023-06-19T02:27:46;100079.56;;;14.32;50.01
35443;BME280;21561;55.654;37.592;2023-06-19T02:30:14;100067.34;;;14.36;50.24
35443;BME280;21561;55.654;37.592;2023-06-19T02:32:42;100069.13;;;14.34;50.20
35443;BME280;21561;55.654;37.592;2023-06-19T02:35:10;100063.97;;;14.29;50.12
35443;BME280;21561;55.654;37.592;2023-06-19T02:37:38;100070.13;;;14.25;50.29
35443;BME280;21561;55.654;37.592;2023-06-19T02:40:06;100065.75;;;14.26;50.17
35443;BME280;21561;55.654;37.592;2023-06-19T02:42:34;100060.50;;;14.27;50.34
35443;BME280;21561;55.654;37.592;2023-06-19T02:45:03;100063.13;;;14.27;50.43
35443;BME280;21561;55.654;37.592;2023-06-19T02:47:41;100073.53;;;14.29;50.60
35443;BME280;21561;55.654;37.592;2023-06-19T02:50:08;100069.13;;;14.32;50.40
35443;BME280;21561;55.654;37.592;2023-06-19T02:52:36;100061.28;;;14.34;50.16
35443;BME280;21561;55.654;37.592;2023-06-19T02:55:04;100056.91;;;14.35;50.37
35443;BME280;21561;55.654;37.592;2023-06-19T02:57:31;100054.19;;;14.41;50.30
35443;BME280;21561;55.654;37.592;2023-06-19T02:59:58;100043.75;;;14.41;50.14
35443;BME280;21561;55.654;37.592;2023-06-19T03:02:26;100048.09;;;14.42;50.06
35443;BME280;21561;55.654;37.592;2023-06-19T03:04:53;100041.13;;;14.41;50.19
35443;BME280;21561;55.654;37.592;2023-06-19T03:07:20;100043.72;;;14.44;50.46
35443;BME280;21561;55.654;37.592;2023-06-19T03:09:47;100039.31;;;14.46;50.38
35443;BME280;21561;55.654;37.592;2023-06-19T03:12:14;100040.16;;;14.48;50.52
35443;BME280;21561;55.654;37.592;2023-06-19T03:14:41;100034.06;;;14.47;50.40
35443;BME280;21561;55.654;37.592;2023-06-19T03:17:07;100033.22;;;14.47;50.33
35443;BME280;21561;55.654;37.592;2023-06-19T03:19:35;100031.47;;;14.46;50.76
35443;BME280;21561;55.654;37.592;2023-06-19T03:22:02;100043.66;;;14.47;50.88
35443;BME280;21561;55.654;37.592;2023-06-19T03:24:30;100035.72;;;14.53;51.17
35443;BME280;21561;55.654;37.592;2023-06-19T03:26:57;100035.66;;;14.59;51.15
35443;BME280;21561;55.654;37.592;2023-06-19T03:29:24;100044.28;;;14.64;51.24
35443;BME280;21561;55.654;37.592;2023-06-19T03:31:51;100034.59;;;14.69;50.92
35443;BME280;21561;55.654;37.592;2023-06-19T03:34:18;100024.94;;;14.73;51.07
35443;BME280;21561;55.654;37.592;2023-06-19T03:36:45;100027.53;;;14.75;50.59
35443;BME280;21561;55.654;37.592;2023-06-19T03:39:13;100024.91;;;14.76;51.02
35443;BME280;21561;55.654;37.592;2023-06-19T03:41:40;100013.56;;;14.79;50.60
35443;BME280;21561;55.654;37.592;2023-06-19T03:44:07;100015.22;;;14.83;50.64
35443;BME280;21561;55.654;37.592;2023-06-19T03:46:34;100015.16;;;14.86;50.49
35443;BME280;21561;55.654;37.592;2023-06-19T03:49:01;100009.84;;;14.89;50.52
35443;BME280;21561;55.654;37.592;2023-06-19T03:51:32;100013.28;;;14.91;50.20
35443;BME280;21561;55.654;37.592;2023-06-19T03:53:59;100014.97;;;14.95;50.34
35443;BME280;21561;55.654;37.592;2023-06-19T03:56:26;99999.19;;;15.00;50.57
35443;BME280;21561;55.654;37.592;2023-06-19T03:58:53;99994.78;;;15.02;50.24
35443;BME280;21561;55.654;37.592;2023-06-19T04:01:20;100000.81;;;15.05;50.62
35443;BME280;21561;55.654;37.592;2023-06-19T04:03:47;100003.31;;;15.12;50.49
35443;BME280;21561;55.654;37.592;2023-06-19T04:06:14;100004.09;;;15.17;50.40
35443;BME280;21561;55.654;37.592;2023-06-19T04:08:41;99997.91;;;15.21;50.60
35443;BME280;21561;55.654;37.592;2023-06-19T04:11:08;99998.69;;;15.26;50.25
35443;BME280;21561;55.654;37.592;2023-06-19T04:13:35;99989.03;;;15.30;49.85
35443;BME280;21561;55.654;37.592;2023-06-19T04:16:02;99979.31;;;15.36;49.54
35443;BME280;21561;55.654;37.592;2023-06-19T04:18:29;99973.06;;;15.42;49.57
35443;BME280;21561;55.654;37.592;2023-06-19T04:20:56;99968.53;;;15.49;49.73
35443;BME280;21561;55.654;37.592;2023-06-19T04:23:23;99967.47;;;15.57;50.05
35443;BME280;21561;55.654;37.592;2023-06-19T04:25:50;99970.00;;;15.62;49.48
35443;BME280;21561;55.654;37.592;2023-06-19T04:28:17;99947.28;;;15.64;48.74
35443;BME280;21561;55.654;37.592;2023-06-19T04:30:44;99936.75;;;15.67;48.26
35443;BME280;21561;55.654;37.592;2023-06-19T04:33:12;99932.22;;;15.74;48.53
35443;BME280;21561;55.654;37.592;2023-06-19T04:35:39;99917.28;;;15.80;47.24
35443;BME280;21561;55.654;37.592;2023-06-19T04:38:09;99908.38;;;15.88;47.34
35443;BME280;21561;55.654;37.592;2023-06-19T04:40:36;99903.09;;;15.91;47.41
35443;BME280;21561;55.654;37.592;2023-06-19T04:43:03;99913.47;;;15.94;47.72
35443;BME280;21561;55.654;37.592;2023-06-19T04:45:32;99900.28;;;15.97;47.37
35443;BME280;21561;55.654;37.592;2023-06-19T04:47:59;99898.44;;;16.02;47.45
35443;BME280;21561;55.654;37.592;2023-06-19T04:50:30;99901.75;;;16.09;46.84
35443;BME280;21561;55.654;37.592;2023-06-19T04:52:57;99885.03;;;16.14;46.29
35443;BME280;21561;55.654;37.592;2023-06-19T04:55:24;99886.63;;;16.20;46.51
35443;BME280;21561;55.654;37.592;2023-06-19T04:57:52;99867.38;;;16.22;46.08
35443;BME280;21561;55.654;37.592;2023-06-19T05:00:19;99872.50;;;16.26;46.04
35443;BME280;21561;55.654;37.592;2023-06-19T05:02:46;99872.44;;;16.29;45.88
35443;BME280;21561;55.654;37.592;2023-06-19T05:05:14;99853.22;;;16.30;45.62
35443;BME280;21561;55.654;37.592;2023-06-19T05:07:41;99849.59;;;16.34;45.32
35443;BME280;21561;55.654;37.592;2023-06-19T05:10:09;99848.53;;;16.41;45.20
35443;BME280;21561;55.654;37.592;2023-06-19T05:12:37;99828.31;;;16.46;44.33
35443;BME280;21561;55.654;37.592;2023-06-19T05:15:04;99829.03;;;16.51;44.63
35443;BME280;21561;55.654;37.592;2023-06-19T05:17:32;99803.38;;;16.63;43.46
35443;BME280;21561;55.654;37.592;2023-06-19T05:19:59;99790.94;;;16.71;43.29
35443;BME280;21561;55.654;37.592;2023-06-19T05:22:29;99778.63;;;16.73;43.34
35443;BME280;21561;55.654;37.592;2023-06-19T05:24:58;99773.28;;;16.76;43.09
35443;BME280;21561;55.654;37.592;2023-06-19T05:27:25;99762.63;;;16.82;42.95
35443;BME280;21561;55.654;37.592;2023-06-19T05:29:52;99738.88;;;16.88;41.81
35443;BME280;21561;55.654;37.592;2023-06-19T05:32:19;99725.69;;;16.91;42.08
35443;BME280;21561;55.654;37.592;2023-06-19T05:34:46;99730.91;;;16.91;42.46
35443;BME280;21561;55.654;37.592;2023-06-19T05:37:13;99721.19;;;16.95;41.86
35443;BME280;21561;55.654;37.592;2023-06-19T05:39:40;99691.22;;;17.04;40.42
35443;BME280;21561;55.654;37.592;2023-06-19T05:42:07;99681.31;;;17.12;40.68
35443;BME280;21561;55.654;37.592;2023-06-19T05:44:34;99628.03;;;17.11;39.00
35443;BME280;21561;55.654;37.592;2023-06-19T05:47:02;99602.78;;;17.09;38.94
35443;BME280;21561;55.654;37.592;2023-06-19T05:49:29;99599.22;;;17.10;38.92
35443;BME280;21561;55.654;37.592;2023-06-19T05:51:56;99596.50;;;17.13;39.53
35443;BME280;21561;55.654;37.592;2023-06-19T05:54:26;99617.34;;;17.17;39.85
35443;BME280;21561;55.654;37.592;2023-06-19T05:56:53;99637.19;;;17.25;40.91
35443;BME280;21561;55.654;37.592;2023-06-19T05:59:20;99605.44;;;17.32;38.96
35443;BME280;21561;55.654;37.592;2023-06-19T06:01:48;99585.03;;;17.41;39.00
35443;BME280;21561;55.654;37.592;2023-06-19T06:04:17;99564.75;;;17.46;38.17
35443;BME280;21561;55.654;37.592;2023-06-19T06:06:45;99550.63;;;17.50;38.15
35443;BME280;21561;55.654;37.592;2023-06-19T06:09:12;99550.63;;;17.50;38.04
35443;BME280;21561;55.654;37.592;2023-06-19T06:11:39;99535.78;;;17.49;37.96
35443;BME280;21561;55.654;37.592;2023-06-19T06:14:06;99534.00;;;17.49;37.97
35443;BME280;21561;55.654;37.592;2023-06-19T06:16:35;99529.50;;;17.53;38.26
35443;BME280;21561;55.654;37.592;2023-06-19T06:19:02;99524.16;;;17.56;38.37
35443;BME280;21561;55.654;37.592;2023-06-19T06:21:30;99526.56;;;17.62;37.88
35443;BME280;21561;55.654;37.592;2023-06-19T06:23:57;99538.63;;;17.66;38.54
35443;BME280;21561;55.654;37.592;2023-06-19T06:26:24;99527.09;;;17.70;37.92
35443;BME280;21561;55.654;37.592;2023-06-19T06:28:51;99523.44;;;17.74;37.94
35443;BME280;21561;55.654;37.592;2023-06-19T06:31:17;99518.91;;;17.78;37.78
35443;BME280;21561;55.654;37.592;2023-06-19T06:33:44;99505.75;;;17.80;37.50
35443;BME280;21561;55.654;37.592;2023-06-19T06:36:14;99510.94;;;17.81;37.87
35443;BME280;21561;55.654;37.592;2023-06-19T06:38:55;99510.81;;;17.86;37.75
35443;BME280;21561;55.654;37.592;2023-06-19T06:41:22;99496.53;;;17.93;37.83
35443;BME280;21561;55.654;37.592;2023-06-19T06:43:49;99501.50;;;17.99;37.29
35443;BME280;21561;55.654;37.592;2023-06-19T06:46:16;99478.72;;;18.00;36.91
35443;BME280;21561;55.654;37.592;2023-06-19T06:48:43;99470.13;;;17.96;37.10
35443;BME280;21561;55.654;37.592;2023-06-19T06:51:10;99455.81;;;17.81;36.88
35443;BME280;21561;55.654;37.592;2023-06-19T06:53:37;99477.91;;;17.75;37.79
35443;BME280;21561;55.654;37.592;2023-06-19T06:56:04;99482.50;;;17.70;37.24
35443;BME280;21561;55.654;37.592;2023-06-19T06:58:31;99485.97;;;17.71;38.01
35443;BME280;21561;55.654;37.592;2023-06-19T07:00:58;99498.81;;;17.79;38.19
35443;BME280;21561;55.654;37.592;2023-06-19T07:03:25;99487.13;;;17.87;37.38
35443;BME280;21561;55.654;37.592;2023-06-19T07:05:52;99482.34;;;17.97;37.76
35443;BME280;21561;55.654;37.592;2023-06-19T07:08:19;99462.91;;;18.01;37.09
35443;BME280;21561;55.654;37.592;2023-06-19T07:10:46;99467.31;;;18.01;37.34
35443;BME280;21561;55.654;37.592;2023-06-19T07:13:13;99454.38;;;17.96;37.43
35443;BME280;21561;55.654;37.592;2023-06-19T07:15:40;99457.00;;;17.96;37.30
35443;BME280;21561;55.654;37.592;2023-06-19T07:18:07;99450.78;;;17.99;37.31
35443;BME280;21561;55.654;37.592;2023-06-19T07:20:35;99445.34;;;18.03;37.00
35443;BME280;21561;55.654;37.592;2023-06-19T07:23:01;99453.75;;;18.11;37.30
35443;BME280;21561;55.654;37.592;2023-06-19T07:25:28;99439.47;;;18.19;37.07
35443;BME280;21561;55.654;37.592;2023-06-19T07:27:55;99435.53;;;18.29;36.99
35443;BME280;21561;55.654;37.592;2023-06-19T07:30:23;99407.31;;;18.34;35.93
35443;BME280;21561;55.654;37.592;2023-06-19T07:32:51;99374.41;;;18.25;35.93
35443;BME280;21561;55.654;37.592;2023-06-19T07:35:18;99364.88;;;18.23;35.90
35443;BME280;21561;55.654;37.592;2023-06-19T07:37:45;99374.59;;;18.21;35.83
35443;BME280;21561;55.654;37.592;2023-06-19T07:40:12;99331.00;;;18.17;34.96
35443;BME280;21561;55.654;37.592;2023-06-19T07:42:39;99325.09;;;18.11;35.12
35443;BME280;21561;55.654;37.592;2023-06-19T07:45:10;99350.31;;;18.16;36.30
35443;BME280;21561;55.654;37.592;2023-06-19T07:47:53;99383.56;;;18.36;36.60
35443;BME280;21561;55.654;37.592;2023-06-19T07:50:29;99345.72;;;18.41;35.77
35443;BME280;21561;55.654;37.592;2023-06-19T07:52:56;99346.31;;;18.46;35.96
35443;BME280;21561;55.654;37.592;2023-06-19T07:55:23;99343.31;;;18.56;35.19
35443;BME280;21561;55.654;37.592;2023-06-19T07:57:51;99338.06;;;18.56;35.43
35443;BME280;21561;55.654;37.592;2023-06-19T08:00:19;99329.25;;;18.57;35.36
35443;BME280;21561;55.654;37.592;2023-06-19T08:02:45;99340.41;;;18.62;35.75
35443;BME280;21561;55.654;37.592;2023-06-19T08:05:13;99331.31;;;18.69;35.55
35443;BME280;21561;55.654;37.592;2023-06-19T08:07:40;99327.47;;;18.76;35.22
35443;BME280;21561;55.654;37.592;2023-06-19T08:10:08;99315.19;;;18.77;34.77
35443;BME280;21561;55.654;37.592;2023-06-19T08:12:42;99307.38;;;18.75;34.96
35443;BME280;21561;55.654;37.592;2023-06-19T08:15:10;99298.00;;;18.69;34.85
35443;BME280;21561;55.654;37.592;2023-06-19T08:17:38;99278.41;;;18.58;34.55
35443;BME280;21561;55.654;37.592;2023-06-19T08:20:05;99291.53;;;18.58;35.10
35443;BME280;21561;55.654;37.592;2023-06-19T08:22:33;99308.81;;;18.63;35.67
35443;BME280;21561;55.654;37.592;2023-06-19T08:25:00;99320.38;;;18.78;35.68
35443;BME280;21561;55.654;37.592;2023-06-19T08:27:29;99293.75;;;18.86;34.34
35443;BME280;21561;55.654;37.592;2023-06-19T08:29:57;99265.94;;;18.82;33.69
35443;BME280;21561;55.654;37.592;2023-06-19T08:32:23;99221.78;;;18.69;32.97
35443;BME280;21561;55.654;37.592;2023-06-19T08:34:51;99225.28;;;18.70;34.27
35443;BME280;21561;55.654;37.592;2023-06-19T08:37:18;99256.13;;;18.85;34.46
35443;BME280;21561;55.654;37.592;2023-06-19T08:39:45;99255.94;;;19.07;34.34
35443;BME280;21561;55.654;37.592;2023-06-19T08:42:12;99250.94;;;19.38;33.96
35443;BME280;21561;55.654;37.592;2023-06-19T08:44:39;99206.53;;;19.67;32.77
35443;BME280;21561;55.654;37.592;2023-06-19T08:47:06;99154.03;;;19.81;32.21
35443;BME280;21561;55.654;37.592;2023-06-19T08:49:34;99077.13;;;19.58;30.83
35443;BME280;21561;55.654;37.592;2023-06-19T08:52:02;99024.28;;;19.30;29.84
35443;BME280;21561;55.654;37.592;2023-06-19T08:54:31;99028.47;;;19.16;30.81
35443;BME280;21561;55.654;37.592;2023-06-19T08:57:01;99043.56;;;19.13;31.11
35443;BME280;21561;55.654;37.592;2023-06-19T08:59:30;99062.22;;;19.08;31.97
35443;BME280;21561;55.654;37.592;2023-06-19T09:01:58;99074.44;;;19.09;32.29
35443;BME280;21561;55.654;37.592;2023-06-19T09:04:26;99082.63;;;19.20;32.26
35443;BME280;21561;55.654;37.592;2023-06-19T09:06:59;99092.53;;;19.33;32.14
35443;BME280;21561;55.654;37.592;2023-06-19T09:09:27;99108.31;;;19.33;32.69
35443;BME280;21561;55.654;37.592;2023-06-19T09:12:06;99122.66;;;19.43;32.87
35443;BME280;21561;55.654;37.592;2023-06-19T09:14:41;99109.19;;;19.49;32.29
35443;BME280;21561;55.654;37.592;2023-06-19T09:17:16;99112.75;;;19.48;32.56
35443;BME280;21561;55.654;37.592;2023-06-19T09:19:48;99114.13;;;19.55;32.27
35443;BME280;21561;55.654;37.592;2023-06-19T09:22:16;99110.16;;;19.64;32.74
35443;BME280;21561;55.654;37.592;2023-06-19T09:24:45;99104.91;;;19.81;32.75
35443;BME280;21561;55.654;37.592;2023-06-19T09:27:14;99076.53;;;20.02;31.04
35443;BME280;21561;55.654;37.592;2023-06-19T09:29:47;99059.34;;;20.27;31.44
35443;BME280;21561;55.654;37.592;2023-06-19T09:32:25;99028.31;;;20.64;30.90
35443;BME280;21561;55.654;37.592;2023-06-19T09:34:55;98976.09;;;21.43;29.13
35443;BME280;21561;55.654;37.592;2023-06-19T09:37:26;98879.25;;;22.25;27.46
35443;BME280;21561;55.654;37.592;2023-06-19T09:39:56;98839.47;;;23.03;27.05
35443;BME280;21561;55.654;37.592;2023-06-19T09:42:34;98770.84;;;23.50;26.87
35443;BME280;21561;55.654;37.592;2023-06-19T09:45:07;98712.16;;;23.68;25.93
35443;BME280;21561;55.654;37.592;2023-06-19T09:50:05;98595.09;;;24.42;24.38
35443;BME280;21561;55.654;37.592;2023-06-19T09:52:33;98548.69;;;24.47;23.98
35443;BME280;21561;55.654;37.592;2023-06-19T09:55:04;98521.59;;;24.55;23.73
35443;BME280;21561;55.654;37.592;2023-06-19T09:57:33;98524.78;;;24.70;24.06
35443;BME280;21561;55.654;37.592;2023-06-19T10:00:03;98519.75;;;25.09;24.19
35443;BME280;21561;55.654;37.592;2023-06-19T10:02:43;98477.00;;;25.74;23.44
35443;BME280;21561;55.654;37.592;2023-06-19T10:05:11;98453.31;;;26.60;22.35
35443;BME280;21561;55.654;37.592;2023-06-19T10:07:46;98418.72;;;27.72;21.37
35443;BME280;21561;55.654;37.592;2023-06-19T10:10:26;98323.38;;;28.64;20.69
35443;BME280;21561;55.654;37.592;2023-06-19T10:12:59;98244.00;;;28.74;19.70
35443;BME280;21561;55.654;37.592;2023-06-19T10:15:28;98198.69;;;28.14;19.68
35443;BME280;21561;55.654;37.592;2023-06-19T10:18:00;98249.69;;;28.19;20.37
35443;BME280;21561;55.654;37.592;2023-06-19T10:20:28;98283.56;;;28.53;21.27
35443;BME280;21561;55.654;37.592;2023-06-19T10:25:37;98066.31;;;27.96;17.78
35443;BME280;21561;55.654;37.592;2023-06-19T10:28:17;98025.97;;;27.91;17.72
35443;BME280;21561;55.654;37.592;2023-06-19T10:30:54;97981.16;;;27.26;17.79
35443;BME280;21561;55.654;37.592;2023-06-19T10:33:24;98001.50;;;26.65;17.94
35443;BME280;21561;55.654;37.592;2023-06-19T10:35:53;98040.53;;;26.82;18.41
35443;BME280;21561;55.654;37.592;2023-06-19T10:38:20;98023.66;;;27.36;17.87
35443;BME280;21561;55.654;37.592;2023-06-19T10:40:47;98009.28;;;27.55;17.65
35443;BME280;21561;55.654;37.592;2023-06-19T10:43:21;98032.75;;;28.36;17.94
35443;BME280;21561;55.654;37.592;2023-06-19T10:45:51;98027.44;;;28.53;17.84
35443;BME280;21561;55.654;37.592;2023-06-19T10:48:23;98016.81;;;29.02;17.52
35443;BME280;21561;55.654;37.592;2023-06-19T10:50:51;97974.94;;;28.94;17.28
35443;BME280;21561;55.654;37.592;2023-06-19T10:55:56;97884.34;;;28.93;16.26
35443;BME280;21561;55.654;37.592;2023-06-19T10:58:25;97882.25;;;28.39;16.24
35443;BME280;21561;55.654;37.592;2023-06-19T11:00:52;97846.72;;;28.55;15.35
35443;BME280;21561;55.654;37.592;2023-06-19T11:03:20;97768.34;;;28.64;14.88
35443;BME280;21561;55.654;37.592;2023-06-19T11:05:48;97753.09;;;29.21;14.27
35443;BME280;21561;55.654;37.592;2023-06-19T11:08:20;97720.69;;;29.70;14.59
35443;BME280;21561;55.654;37.592;2023-06-19T11:10:48;97733.03;;;29.79;14.83
35443;BME280;21561;55.654;37.592;2023-06-19T11:13:18;97734.44;;;30.05;14.70
35443;BME280;21561;55.654;37.592;2023-06-19T11:15:47;97715.09;;;30.33;14.21
35443;BME280;21561;55.654;37.592;2023-06-19T11:18:17;97684.75;;;30.25;14.13
35443;BME280;21561;55.654;37.592;2023-06-19T11:20:48;97673.41;;;30.23;13.94
35443;BME280;21561;55.654;37.592;2023-06-19T11:23:25;97667.69;;;31.08;13.68
35443;BME280;21561;55.654;37.592;2023-06-19T11:25:53;97623.44;;;31.12;13.45
35443;BME280;21561;55.654;37.592;2023-06-19T11:28:20;97592.53;;;30.36;13.62
35443;BME280;21561;55.654;37.592;2023-06-19T11:31:00;97625.22;;;30.68;14.24
35443;BME280;21561;55.654;37.592;2023-06-19T11:33:30;97613.66;;;30.16;14.14
35443;BME280;21561;55.654;37.592;2023-06-19T11:36:01;97627.59;;;30.12;14.38
35443;BME280;21561;55.654;37.592;2023-06-19T11:38:29;97629.06;;;30.44;14.45
35443;BME280;21561;55.654;37.592;2023-06-19T11:40:56;97650.47;;;30.95;14.17
35443;BME280;21561;55.654;37.592;2023-06-19T11:43:28;97701.69;;;31.07;14.18
35443;BME280;21561;55.654;37.592;2023-06-19T11:46:07;97689.13;;;31.72;14.56
35443;BME280;21561;55.654;37.592;2023-06-19T11:48:37;97728.31;;;29.81;15.05
35443;BME280;21561;55.654;37.592;2023-06-19T11:51:04;97731.56;;;29.45;15.80
35443;BME280;21561;55.654;37.592;2023-06-19T11:53:31;97785.19;;;29.67;16.04
35443;BME280;21561;55.654;37.592;2023-06-19T11:55:58;97804.81;;;30.05;15.82
35443;BME280;21561;55.654;37.592;2023-06-19T11:58:25;97803.09;;;30.80;15.34
35443;BME280;21561;55.654;37.592;2023-06-19T12:00:53;97803.78;;;31.70;14.85
35443;BME280;21561;55.654;37.592;2023-06-19T12:03:20;97778.19;;;32.67;14.43
35443;BME280;21561;55.654;37.592;2023-06-19T12:05:47;97720.59;;;32.70;13.43
35443;BME280;21561;55.654;37.592;2023-06-19T12:08:14;97711.13;;;32.46;13.51
35443;BME280;21561;55.654;37.592;2023-06-19T12:10:41;97734.47;;;32.17;14.14
35443;BME280;21561;55.654;37.592;2023-06-19T12:13:08;97762.56;;;31.71;14.68
35443;BME280;21561;55.654;37.592;2023-06-19T12:15:35;97780.31;;;30.99;15.16
35443;BME280;21561;55.654;37.592;2023-06-19T12:18:04;97802.81;;;30.60;15.60
35443;BME280;21561;55.654;37.592;2023-06-19T12:20:31;97816.41;;;29.66;16.06
35443;BME280;21561;55.654;37.592;2023-06-19T12:22:58;97837.25;;;29.17;16.22
35443;BME280;21561;55.654;37.592;2023-06-19T12:25:25;97829.06;;;28.29;16.72
35443;BME280;21561;55.654;37.592;2023-06-19T12:27:52;97875.53;;;28.51;16.54
35443;BME280;21561;55.654;37.592;2023-06-19T12:30:21;97894.41;;;29.78;16.63
35443;BME280;21561;55.654;37.592;2023-06-19T12:32:49;97883.00;;;31.07;15.89
35443;BME280;21561;55.654;37.592;2023-06-19T12:35:17;97862.81;;;32.13;15.31
35443;BME280;21561;55.654;37.592;2023-06-19T12:37:45;97834.88;;;32.86;14.61
35443;BME280;21561;55.654;37.592;2023-06-19T12:40:12;97739.69;;;31.97;14.44
35443;BME280;21561;55.654;37.592;2023-06-19T12:42:39;97776.22;;;32.20;14.34
35443;BME280;21561;55.654;37.592;2023-06-19T12:45:07;97738.66;;;30.97;15.06
35443;BME280;21561;55.654;37.592;2023-06-19T12:47:34;97767.06;;;30.83;15.43
35443;BME280;21561;55.654;37.592;2023-06-19T12:50:01;97796.06;;;30.50;15.89
35443;BME280;21561;55.654;37.592;2023-06-19T12:52:31;97831.16;;;30.32;15.85
35443;BME280;21561;55.654;37.592;2023-06-19T12:54:58;97817.47;;;29.88;15.61
35443;BME280;21561;55.654;37.592;2023-06-19T12:57:31;97816.88;;;29.70;15.69
35443;BME280;21561;55.654;37.592;2023-06-19T12:59:58;97823.94;;;30.17;15.42
35443;BME280;21561;55.654;37.592;2023-06-19T13:02:25;97812.88;;;30.58;15.13
35443;BME280;21561;55.654;37.592;2023-06-19T13:04:52;97809.22;;;29.75;15.98